Terminal Aerodrome Forecast
Issued by NWS Cleveland, OH

Home | Current Version | Previous Version | Text Only | Print | Product List | Glossary Off
Versions: 1 2 3 4 5 6 7 8 9 10 11 12 13 14 15 16 17 18 19 20 21 22 23 24 25 26 27

000
FTUS41 KCLE 281943 AAA
TAFTOL
TAF AMD
KTOL 281943Z 2820/2918 08008KT P6SM OVC070
      TEMPO 2820/2824 -SHRA OVC025
     FM290000 04005KT P6SM OVC080
     FM290400 05004KT 3SM -RA BR OVC015
     FM290700 04004KT P6SM OVC025
     FM291300 04004KT 5SM -RA BR OVC025=

USA.gov is the U.S. government's official web portal to all federal, state and local government web resources and services.